Flight Track Log - Related Links

Times and Time Zones

All times are in EDT time to prevent confusion due to time zone crossing. See the TMC493 flight status page for this flight to view local times or setup timezone preferences in your user account.

Time Position Orientation Groundspeed Altitude Reporting Facility
EDT Latitude Longitude Course Direction KTS MPH feet Rate Location/Type
Sun 11:47:06 AM 38.2383 -84.3758 63° Northeast 193 222 3,900  Level Indianapolis Center
Sun 11:48:08 AM 38.2556 -84.2969 74° East 240 276 6,400 2,976 Climbing Indianapolis Center
Sun 11:49:09 AM 38.3031 -84.2008 58° Northeast 277 319 10,000 2,293 Climbing Indianapolis Center
Sun 11:50:11 AM 38.3456 -84.1108 59° Northeast 295 339 11,100 1,548 Climbing Indianapolis Center
Sun 11:51:13 AM 38.3789 -84.0178 65° Northeast 290 334 13,200 2,081 Climbing Indianapolis Center
Sun 11:52:00 AM 38.5481 -83.7298 63° Northeast  Level FlightAware Approximate
Sun 11:52:15 AM 38.4064 -83.9122 72° East 309 356 15,400  Level Indianapolis Center
Sun 11:53:17 AM 38.4347 -83.8111 70° East 304 350 17,500 2,081 Climbing Indianapolis Center
Sun 11:54:19 AM 38.4631 -83.7083 71° East 306 352 19,700 2,032 Climbing Indianapolis Center
Sun 11:55:21 AM 38.4875 -83.5828 76° East 311 358 21,700 1,694 Climbing Indianapolis Center
Sun 11:56:23 AM 38.5089 -83.4678 77° East 328 377 23,200 1,452 Climbing Indianapolis Center
Sun 11:57:25 AM 38.5350 -83.3503 74° East 341 392 24,700 1,403 Climbing Indianapolis Center
Sun 11:58:27 AM 38.5897 -83.2433 57° Northeast 358 412 26,100 1,403 Climbing Indianapolis Center
Sun 11:59:29 AM 38.6444 -83.1350 57° Northeast 362 417 27,600 1,210 Climbing Indianapolis Center
Sun 12:00:31 PM 38.6989 -83.0275 57° Northeast 366 421 28,600 976 Climbing Indianapolis Center
Sun 12:01:32 PM 38.7569 -82.9139 57° Northeast 377 434 29,600 1,073 Climbing Indianapolis Center
Sun 12:02:34 PM 38.8281 -82.7725 57° Northeast 390 449 30,800 1,016 Climbing Indianapolis Center
Sun 12:03:36 PM 38.8878 -82.6544 57° Northeast 393 452 31,700 919 Climbing Indianapolis Center
Sun 12:04:38 PM 38.9483 -82.5339 57° Northeast 399 459 32,700 919 Climbing Indianapolis Center
Sun 12:05:40 PM 39.0092 -82.4119 57° Northeast 404 465 33,600 919 Climbing Indianapolis Center
Sun 12:06:42 PM 39.0700 -82.2881 58° Northeast 408 470 34,600 968 Climbing Indianapolis Center
Sun 12:07:44 PM 39.1317 -82.1644 57° Northeast 409 471 35,600 878 Climbing Indianapolis Center
Sun 12:08:45 PM 39.1944 -82.0367 58° Northeast 416 479 36,400 683 Climbing Indianapolis Center
Sun 12:09:47 PM 39.2581 -81.9061 58° Northeast 424 488 37,000 290 Climbing Indianapolis Center
Sun 12:10:49 PM 39.3233 -81.7731 58° Northeast 434 499 37,000  Level Indianapolis Center
Sun 12:11:51 PM 39.4053 -81.6053 58° Northeast 454 522 37,000  Level Indianapolis Center
Sun 12:12:53 PM 39.4736 -81.4625 58° Northeast 463 533 37,000  Level Indianapolis Center
Sun 12:13:55 PM 39.5436 -81.3189 58° Northeast 468 539 37,000  Level Indianapolis Center
Sun 12:14:24 PM 39.5772 -81.2592 54° Northeast 467 537 37,000  Level Cleveland Center
Sun 12:15:24 PM 39.6428 -81.1167 59° Northeast 467 537 37,000  Level Cleveland Center
Sun 12:16:24 PM 39.7122 -80.9717 58° Northeast 467 537 37,000  Level Cleveland Center
Sun 12:17:24 PM 39.7792 -80.8289 59° Northeast 467 537 37,000  Level Cleveland Center
Sun 12:18:24 PM 39.8442 -80.6886 59° Northeast 461 531 37,000  Level Cleveland Center
Sun 12:19:24 PM 39.9108 -80.5506 58° Northeast 451 519 37,000  Level Cleveland Center
Sun 12:20:24 PM 39.9753 -80.4125 59° Northeast 451 519 37,000  Level Cleveland Center
Sun 12:21:24 PM 40.0397 -80.2767 58° Northeast 451 519 37,000  Level Cleveland Center
Sun 12:22:24 PM 40.1039 -80.1297 60° Northeast 427 491 37,000  Level Cleveland Center
Sun 12:23:24 PM 40.1617 -80.0072 58° Northeast 422 486 37,000  Level Cleveland Center
Sun 12:24:24 PM 40.2256 -79.8733 58° Northeast 427 491 37,000  Level Cleveland Center
Sun 12:25:24 PM 40.2911 -79.7256 60° Northeast 427 491 37,000  Level Cleveland Center
Sun 12:26:24 PM 40.3528 -79.5969 58° Northeast 427 491 37,000  Level Cleveland Center
Sun 12:27:24 PM 40.4119 -79.4650 59° Northeast 422 486 37,000  Level Cleveland Center
Sun 12:28:24 PM 40.4731 -79.3275 60° Northeast 422 486 37,000  Level Cleveland Center
Sun 12:29:24 PM 40.5278 -79.1981 61° Northeast 422 486 37,000  Level Cleveland Center
Sun 12:30:24 PM 40.5886 -79.0656 59° Northeast 422 486 37,000  Level Cleveland Center
Sun 12:31:24 PM 40.6472 -78.9303 60° Northeast 422 486 37,000  Level Cleveland Center
Sun 12:32:24 PM 40.7078 -78.7972 59° Northeast 422 486 37,000  Level Cleveland Center
Sun 12:33:24 PM 40.7622 -78.6753 59° Northeast 422 486 37,000  Level Cleveland Center
Sun 12:35:06 PM 40.8675 -78.4358 60° Northeast 425 489 37,000  Level New York Center
Sun 12:36:07 PM 40.9264 -78.2969 61° Northeast 425 489 37,000  Level New York Center
Sun 12:37:07 PM 40.9869 -78.1633 59° Northeast 419 482 37,000  Level New York Center
Sun 12:38:06 PM 41.0453 -78.0292 60° Northeast 419 482 37,000  Level New York Center
Sun 12:39:06 PM 41.1036 -77.8922 60° Northeast 419 482 37,000  Level New York Center
Sun 12:40:06 PM 41.1617 -77.7578 60° Northeast 419 482 37,000  Level New York Center
Sun 12:41:07 PM 41.2194 -77.6231 60° Northeast 419 482 37,000  Level New York Center
Sun 12:42:05 PM 41.2772 -77.4881 60° Northeast 419 482 37,000  Level New York Center
Sun 12:43:05 PM 41.3256 -77.3711 61° Northeast 409 471 37,000  Level New York Center
Sun 12:44:06 PM 41.3828 -77.2386 60° Northeast 404 465 37,000  Level New York Center
Sun 12:45:07 PM 41.4400 -77.1028 61° Northeast 404 465 37,000  Level New York Center
Sun 12:46:07 PM 41.5022 -76.9508 61° Northeast 409 471 37,000  Level New York Center
Sun 12:48:26 PM 41.6344 -76.6431 60° Northeast 412 474 37,000  Level Boston Center
Sun 12:49:26 PM 41.6894 -76.5050 62° Northeast 412 474 37,000  Level Boston Center
Sun 12:50:26 PM 41.7464 -76.3694 61° Northeast 412 474 37,000  Level Boston Center
Sun 12:51:26 PM 41.8011 -76.2308 62° Northeast 412 474 37,000  Level Boston Center
Sun 12:52:26 PM 41.8625 -76.0811 61° Northeast 412 474 37,000  Level Boston Center
Sun 12:53:26 PM 41.9189 -75.9475 60° Northeast 407 468 37,000  Level Boston Center
Sun 12:54:26 PM 41.9731 -75.8108 62° Northeast 407 468 37,000  Level Boston Center
Sun 12:55:26 PM 42.0269 -75.6711 63° Northeast 407 468 37,000  Level Boston Center
Sun 12:56:26 PM 42.0808 -75.5369 62° Northeast 407 468 37,000  Level Boston Center
Sun 12:57:26 PM 42.1306 -75.3936 65° Northeast 407 468 37,000 -550 Level Boston Center
Sun 12:58:26 PM 42.1781 -75.2531 65° Northeast 407 468 35,900 -1,000 Descending Boston Center
Sun 12:59:26 PM 42.2139 -75.1453 66° East 401 461 35,000 -450 Descending Boston Center
Sun 01:00:26 PM 42.2700 -74.9764 66° East 395 455 35,000  Level Boston Center
Sun 01:01:26 PM 42.3147 -74.8381 66° East 395 455 35,000  Level Boston Center
Sun 01:02:26 PM 42.3614 -74.6964 66° East 395 455 35,000  Level Boston Center
Sun 01:03:26 PM 42.4078 -74.5575 66° East 395 455 35,000  Level Boston Center
Sun 01:04:26 PM 42.4453 -74.4461 65° Northeast 400 460 35,000  Level Boston Center
Sun 01:05:26 PM 42.4978 -74.2958 65° Northeast 395 455 35,000  Level Boston Center
Sun 01:06:26 PM 42.5417 -74.1561 67° East 395 455 35,000  Level Boston Center
Sun 01:07:26 PM 42.5853 -74.0192 67° East 395 455 35,000  Level Boston Center
Sun 01:08:26 PM 42.6311 -73.8681 68° East 395 455 35,000  Level Boston Center
Sun 01:09:26 PM 42.6722 -73.7333 67° East 388 447 35,000 -50 Level Boston Center
Sun 01:10:26 PM 42.7172 -73.6156 62° Northeast 388 447 34,900 -250 Descending Boston Center
Sun 01:11:26 PM 42.7583 -73.4778 68° East 388 447 34,500 -727 Descending Boston Center
Sun 01:12:38 PM 42.8075 -73.3317 65° Northeast 373 429 33,300 -682 Descending Boston Center
Sun 01:13:38 PM 42.8458 -73.2019 68° East 367 422 33,000 -350 Descending Boston Center
Sun 01:14:38 PM 42.8883 -73.0719 66° East 367 422 32,600 -1,100 Descending Boston Center
Sun 01:15:38 PM 42.9308 -72.9222 69° East 375 432 30,800 -1,600 Descending Boston Center
Sun 01:16:38 PM 42.9708 -72.7919 67° East 375 432 29,400 -1,450 Descending Boston Center
Sun 01:17:38 PM 43.0108 -72.6586 68° East 375 432 27,900 -1,488 Descending Boston Center
Sun 01:18:39 PM 43.0611 -72.5197 64° Northeast 380 437 26,400 -1,550 Descending Boston Center
Sun 01:19:38 PM 43.1047 -72.3833 66° East 385 443 24,800 -1,412 Descending Boston Center
Sun 01:20:38 PM 43.1358 -72.2750 68° East 379 436 23,600 -1,400 Descending Boston Center
Sun 01:21:38 PM 43.1772 -72.1183 70° East 373 429 22,000 -1,550 Descending Boston Center
Sun 01:22:38 PM 43.2164 -71.9872 68° East 373 429 20,500 -1,350 Descending Boston Center
Sun 01:23:38 PM 43.2494 -71.8814 67° East 373 429 19,300 -1,500 Descending Boston Center
Sun 01:24:38 PM 43.2922 -71.7297 69° East 368 423 17,500 -1,550 Descending Boston Center
Sun 01:25:38 PM 43.3269 -71.6181 67° East 361 415 16,200 -1,350 Descending Boston Center
Sun 01:26:38 PM 43.3656 -71.4892 68° East 337 388 14,800 -1,300 Descending Boston Center
Sun 01:27:38 PM 43.3958 -71.3800 69° East 332 382 13,600 -1,300 Descending Boston Center
Sun 01:28:38 PM 43.4322 -71.2594 67° East 337 388 12,200 -1,250 Descending Boston Center
Sun 01:29:38 PM 43.4703 -71.1242 69° East 337 388 11,100 -550 Descending Boston Center
Sun 01:30:38 PM 43.4856 -71.0150 79° East 321 369 11,100 -550 Level Boston Center
Sun 01:31:38 PM 43.4944 -70.8831 85° East 310 357 10,000 -1,500 Descending Boston Center
Sun 01:32:38 PM 43.5014 -70.7828 85° East 281 323 8,100 -1,800 Descending Boston Center
Sun 01:33:38 PM 43.5081 -70.6881 84° East 257 296 6,400 -1,850 Descending Boston Center
Sun 01:34:38 PM 43.5150 -70.5906 84° East 251 289 4,400 -1,150 Descending Boston Center
Sun 01:35:38 PM 43.5219 -70.4989 84° East 251 289 4,100 -150 Descending Boston Center
Sun 01:36:38 PM 43.5306 -70.4039 83° East 251 289 4,100 -50 Level Boston Center
Sun 01:37:38 PM 43.5372 -70.3150 84° East 244 281 4,000 -500 Descending Boston Center
Sun 01:38:38 PM 43.5378 -70.2319 89° East 218 251 3,100 -450 Descending Boston Center
Sun 01:39:38 PM 43.5658 -70.1764 55° Northeast 173 199 3,100 -500 Level Boston Center
Sun 01:40:38 PM 43.6242 -70.1742 North 185 213 2,100 -700 Descending Boston Center
Sun 01:41:38 PM 43.6539 -70.2047 323° Northwest 168 193 1,700 -400 Descending Boston Center
Sun 01:43:00 PM 43.6333 -70.3000 311° West  Level FlightAware Approximate
Sun 01:50:00 PM 43.6456 -70.3086 311° West  Level Estimated
Sun 01:51:00 PM 43.6456 -70.3086 311° West  Level Estimated

Login

Don't have an account? Register now (free) for customized features, flight alerts, and more!